Time;durP1;ratioP1;P1;durP2;ratioP2;P2;SDS_P1;SDS_P2;PMS_P1;PMS_P2;Temp;Humidity;BMP_temperature;BMP_pressure;BME280_temperature;BME280_humidity;BME280_pressure;Samples;Min_cycle;Max_cycle;Signal;HPM_P1;HPM_P2
2022/07/05 00:02:11;;;;;;;2.97;2.80;;;;;;;18.18;100.00;97169.78;4984907;28;20591;-59
2022/07/05 00:04:40;;;;;;;3.60;3.30;;;;;;;18.19;100.00;97172.25;4931261;28;20324;-60
2022/07/05 00:07:18;;;;;;;2.90;2.77;;;;;;;18.11;100.00;97169.94;4927983;28;20501;-61
2022/07/05 00:09:47;;;;;;;5.77;3.03;;;;;;;18.04;100.00;97164.66;4980178;28;20282;-57
2022/07/05 00:12:15;;;;;;;3.47;3.27;;;;;;;17.99;100.00;97163.69;4974811;28;20220;-59
2022/07/05 00:14:48;;;;;;;3.43;3.23;;;;;;;17.87;100.00;97169.06;4976925;28;20292;-60
2022/07/05 00:17:18;;;;;;;4.10;2.67;;;;;;;17.84;100.00;97170.34;4971410;28;20979;-59
2022/07/05 00:19:46;;;;;;;3.57;3.27;;;;;;;17.78;100.00;97166.72;4984796;28;20231;-61
2022/07/05 00:22:14;;;;;;;3.77;3.47;;;;;;;17.75;100.00;97167.16;4932192;28;20233;-61
2022/07/05 00:24:43;;;;;;;3.93;3.53;;;;;;;17.72;100.00;97170.31;4984372;28;20208;-58
2022/07/05 00:27:12;;;;;;;3.57;2.90;;;;;;;17.69;100.00;97176.13;4985667;28;20839;-60
2022/07/05 00:29:40;;;;;;;3.40;3.20;;;;;;;17.63;100.00;97175.22;4964360;28;20204;-61
2022/07/05 00:32:09;;;;;;;3.33;3.10;;;;;;;17.61;100.00;97171.13;4964445;28;20460;-59
2022/07/05 00:34:38;;;;;;;2.93;2.73;;;;;;;17.62;100.00;97170.06;4982867;28;20677;-61
2022/07/05 00:37:07;;;;;;;3.03;2.83;;;;;;;17.70;100.00;97171.59;4945973;28;20234;-60
2022/07/05 00:39:35;;;;;;;3.00;2.70;;;;;;;17.70;100.00;97163.56;4983919;28;20232;-60
2022/07/05 00:42:03;;;;;;;3.70;3.43;;;;;;;17.71;100.00;97163.31;4985604;28;20233;-57
2022/07/05 00:44:34;;;;;;;3.03;2.90;;;;;;;17.73;100.00;97165.78;4976722;28;20209;-61
2022/07/05 00:47:03;;;;;;;2.80;2.60;;;;;;;17.73;100.00;97165.78;4959203;28;20302;-57
2022/07/05 00:49:32;;;;;;;3.63;3.23;;;;;;;17.75;100.00;97171.72;4980404;28;20213;-56
2022/07/05 00:52:02;;;;;;;2.90;2.70;;;;;;;17.73;100.00;97182.66;4983359;28;20232;-61
2022/07/05 00:54:48;;;;;;;2.80;2.70;;;;;;;17.71;100.00;97173.25;4921945;28;20209;-59
2022/07/05 00:57:17;;;;;;;2.80;2.70;;;;;;;17.68;100.00;97171.81;4989591;28;20783;-56
2022/07/05 00:59:45;;;;;;;2.57;2.47;;;;;;;17.62;100.00;97172.75;4978181;28;20274;-59
2022/07/05 01:02:13;;;;;;;3.20;3.00;;;;;;;17.60;100.00;97172.97;4967756;28;20654;-61
2022/07/05 01:04:48;;;;;;;2.97;2.87;;;;;;;17.61;100.00;97165.75;4985149;28;20232;-60
2022/07/05 01:07:19;;;;;;;3.07;2.83;;;;;;;17.59;100.00;97155.25;4985850;28;20279;-57
2022/07/05 01:09:47;;;;;;;2.63;2.43;;;;;;;17.61;100.00;97155.84;4941595;28;20563;-60
2022/07/05 01:12:16;;;;;;;3.57;2.90;;;;;;;17.60;100.00;97154.22;4985129;28;20271;-60
2022/07/05 01:14:44;;;;;;;2.47;2.37;;;;;;;17.63;100.00;97153.78;4984794;28;20201;-57
2022/07/05 01:17:13;;;;;;;3.80;2.80;;;;;;;17.63;100.00;97163.66;4960048;28;20468;-58
2022/07/05 01:19:42;;;;;;;2.40;2.30;;;;;;;17.63;100.00;97156.47;4983731;28;20696;-60
2022/07/05 01:22:18;;;;;;;2.30;2.20;;;;;;;17.59;100.00;97160.63;4984248;28;20247;-59
2022/07/05 01:24:48;;;;;;;3.27;2.63;;;;;;;17.56;100.00;97141.53;4952809;28;20759;-59
2022/07/05 01:27:17;;;;;;;2.23;2.13;;;;;;;17.59;100.00;97154.47;4982114;28;20290;-61
2022/07/05 01:29:46;;;;;;;2.20;2.10;;;;;;;17.57;100.00;97145.84;4984890;28;20292;-58
2022/07/05 01:32:14;;;;;;;3.43;3.10;;;;;;;17.48;100.00;97139.97;4988546;28;20215;-62
2022/07/05 01:34:42;;;;;;;2.33;2.23;;;;;;;17.45;100.00;97140.44;4963209;28;20236;-57
2022/07/05 01:37:11;;;;;;;2.53;2.33;;;;;;;17.42;100.00;97133.69;4986266;28;20505;-59
2022/07/05 01:39:40;;;;;;;2.77;2.63;;;;;;;17.33;100.00;97129.69;4963359;28;20268;-59
2022/07/05 01:42:09;;;;;;;2.60;2.50;;;;;;;17.38;100.00;97139.72;4963752;28;20359;-60
2022/07/05 01:44:39;;;;;;;3.10;3.00;;;;;;;17.32;100.00;97130.75;4984527;28;20677;-56
2022/07/05 01:47:07;;;;;;;2.40;2.30;;;;;;;17.25;100.00;97128.19;4983964;28;20237;-58
2022/07/05 01:49:40;;;;;;;2.90;2.63;;;;;;;17.21;100.00;97138.53;4965364;28;20216;-60
2022/07/05 01:52:10;;;;;;;2.80;2.60;;;;;;;17.18;100.00;97138.16;4988346;28;20308;-58
2022/07/05 01:54:39;;;;;;;2.63;2.53;;;;;;;17.14;100.00;97139.66;4974449;28;20209;-59
2022/07/05 01:57:09;;;;;;;2.67;2.47;;;;;;;17.11;100.00;97142.78;4965455;28;20806;-60
2022/07/05 01:59:37;;;;;;;2.93;2.80;;;;;;;17.07;100.00;97137.09;4989186;28;20214;-58
2022/07/05 02:02:07;;;;;;;3.70;3.50;;;;;;;17.05;100.00;97139.97;4966728;28;20516;-61
2022/07/05 02:04:35;;;;;;;3.10;2.83;;;;;;;16.98;100.00;97143.78;4968984;28;20241;-56
2022/07/05 02:07:05;;;;;;;3.10;2.90;;;;;;;16.95;100.00;97139.69;4988692;28;20225;-61
2022/07/05 02:09:33;;;;;;;2.90;2.70;;;;;;;16.93;100.00;97145.25;4988805;28;20228;-60
2022/07/05 02:12:03;;;;;;;2.70;2.60;;;;;;;16.90;100.00;97136.88;4927182;28;20217;-59
2022/07/05 02:14:33;;;;;;;3.00;2.80;;;;;;;16.86;100.00;97149.06;4965672;28;20468;-59
2022/07/05 02:17:01;;;;;;;3.00;2.70;;;;;;;16.86;100.00;97149.88;4962937;28;20921;-55
2022/07/05 02:19:30;;;;;;;3.40;2.60;;;;;;;16.89;100.00;97156.63;4968080;28;20846;-59
2022/07/05 02:21:58;;;;;;;2.97;2.87;;;;;;;16.90;100.00;97158.28;4964515;28;20229;-60
2022/07/05 02:24:26;;;;;;;2.83;2.70;;;;;;;16.91;100.00;97157.22;4985568;28;20209;-57
2022/07/05 02:26:54;;;;;;;3.00;2.90;;;;;;;16.93;100.00;97161.28;4983238;28;20307;-60
2022/07/05 02:29:22;;;;;;;3.00;2.80;;;;;;;16.89;100.00;97159.31;4935376;28;20316;-60
2022/07/05 02:31:51;;;;;;;2.80;2.70;;;;;;;16.82;100.00;97164.75;4986959;28;20497;-57
2022/07/05 02:34:20;;;;;;;2.60;2.50;;;;;;;16.75;100.00;97158.66;4987372;28;20201;-56
2022/07/05 02:36:48;;;;;;;3.20;3.07;;;;;;;16.74;100.00;97155.16;4935707;28;20283;-60
2022/07/05 02:39:16;;;;;;;2.60;2.50;;;;;;;16.77;100.00;97162.72;4986978;28;20282;-58
2022/07/05 02:41:44;;;;;;;2.80;2.60;;;;;;;16.76;100.00;97171.78;4988400;28;20760;-61
2022/07/05 02:44:12;;;;;;;3.13;2.90;;;;;;;16.72;100.00;97173.28;4938686;28;20240;-59
2022/07/05 02:46:40;;;;;;;2.43;2.27;;;;;;;16.71;100.00;97179.69;4987729;28;20222;-61
2022/07/05 02:49:09;;;;;;;3.00;2.90;;;;;;;16.71;100.00;97177.00;4982365;28;20228;-58
2022/07/05 02:51:37;;;;;;;3.10;2.90;;;;;;;16.72;100.00;97175.97;4967192;28;20541;-58
2022/07/05 02:54:05;;;;;;;3.10;3.00;;;;;;;16.74;100.00;97176.56;4984034;28;20432;-59
2022/07/05 02:56:33;;;;;;;4.23;3.13;;;;;;;16.69;100.00;97187.09;4986744;28;20209;-59
2022/07/05 02:59:01;;;;;;;3.30;3.10;;;;;;;16.65;100.00;97193.94;4936642;28;20299;-56
2022/07/05 03:01:29;;;;;;;2.80;2.70;;;;;;;16.61;100.00;97179.38;4984284;28;20595;-59
2022/07/05 03:03:59;;;;;;;3.73;3.40;;;;;;;16.55;100.00;97193.66;4983709;28;20335;-56
2022/07/05 03:06:28;;;;;;;3.23;3.03;;;;;;;16.47;100.00;97192.09;4989276;28;20197;-59
2022/07/05 03:08:56;;;;;;;3.33;3.07;;;;;;;16.34;100.00;97193.88;4965459;28;20217;-55
2022/07/05 03:11:24;;;;;;;4.03;3.80;;;;;;;16.26;100.00;97193.31;4987428;28;20704;-61
2022/07/05 03:13:53;;;;;;;3.70;3.50;;;;;;;16.17;100.00;97193.59;4964196;28;20577;-59
2022/07/05 03:16:22;;;;;;;3.60;3.40;;;;;;;16.09;100.00;97198.41;4971303;28;20653;-60
2022/07/05 03:18:50;;;;;;;3.70;3.40;;;;;;;16.02;100.00;97201.13;4984781;28;20657;-55
2022/07/05 03:21:18;;;;;;;4.13;3.60;;;;;;;15.96;100.00;97204.69;4987686;28;20421;-60
2022/07/05 03:23:48;;;;;;;3.47;3.17;;;;;;;15.91;100.00;97203.47;4963457;28;20239;-56
2022/07/05 03:26:16;;;;;;;5.63;3.90;;;;;;;15.91;100.00;97210.69;4985510;28;20231;-57
2022/07/05 03:28:47;;;;;;;4.03;3.83;;;;;;;15.82;100.00;97212.78;4984150;28;20666;-58
2022/07/05 03:31:15;;;;;;;3.63;3.43;;;;;;;15.74;100.00;97216.50;4950164;28;20731;-60
2022/07/05 03:33:43;;;;;;;3.47;3.37;;;;;;;15.68;100.00;97222.72;4980488;28;20212;-58
2022/07/05 03:36:11;;;;;;;4.27;4.07;;;;;;;15.62;100.00;97224.41;4983536;28;20418;-55
2022/07/05 03:38:39;;;;;;;4.00;3.80;;;;;;;15.58;100.00;97230.41;4965561;28;20737;-59
2022/07/05 03:41:09;;;;;;;4.10;3.80;;;;;;;15.56;100.00;97229.81;4979997;28;20375;-60
2022/07/05 03:43:37;;;;;;;4.27;3.90;;;;;;;15.53;100.00;97236.38;4988284;28;20228;-59
2022/07/05 03:46:05;;;;;;;4.77;3.83;;;;;;;15.56;100.00;97232.47;4934835;28;20228;-59
2022/07/05 03:48:34;;;;;;;4.13;3.93;;;;;;;15.58;100.00;97230.41;4966743;28;20263;-60
2022/07/05 03:51:08;;;;;;;6.43;3.70;;;;;;;15.57;100.00;97234.91;4983470;28;20315;-59
2022/07/05 03:53:36;;;;;;;4.27;3.87;;;;;;;15.52;100.00;97231.22;4966582;28;20710;-61
2022/07/05 03:56:04;;;;;;;4.37;3.97;;;;;;;15.47;100.00;97247.91;4960452;28;20205;-60
2022/07/05 03:58:34;;;;;;;4.23;4.03;;;;;;;15.43;100.00;97249.38;4982782;28;20237;-56
2022/07/05 04:01:02;;;;;;;4.23;3.93;;;;;;;15.39;100.00;97245.50;4942184;28;20713;-57
2022/07/05 04:03:30;;;;;;;4.20;3.87;;;;;;;15.42;100.00;97255.75;4980318;28;20239;-57
2022/07/05 04:06:05;;;;;;;4.07;3.77;;;;;;;15.40;100.00;97255.16;4985140;28;20204;-58
2022/07/05 04:08:33;;;;;;;4.70;4.40;;;;;;;15.33;100.00;97261.31;4964587;28;20312;-59
2022/07/05 04:11:02;;;;;;;4.40;4.10;;;;;;;15.31;100.00;97259.91;4984396;28;20592;-56
2022/07/05 04:13:30;;;;;;;4.50;4.30;;;;;;;15.24;100.00;97254.59;4980328;28;20305;-57
2022/07/05 04:15:59;;;;;;;4.30;4.00;;;;;;;15.31;100.00;97259.91;4982906;28;20706;-60
2022/07/05 04:18:28;;;;;;;4.50;4.20;;;;;;;15.37;100.00;97255.56;4939773;28;20289;-59
2022/07/05 04:20:56;;;;;;;4.50;4.20;;;;;;;15.50;100.00;97255.50;4931586;28;20334;-62
2022/07/05 04:23:24;;;;;;;6.37;4.63;;;;;;;15.65;100.00;97252.53;4980401;28;20240;-62
2022/07/05 04:25:52;;;;;;;4.40;4.10;;;;;;;15.80;100.00;97260.25;4959878;28;20573;-57
2022/07/05 04:28:20;;;;;;;4.17;3.87;;;;;;;15.93;100.00;97264.72;4988304;28;20316;-62
2022/07/05 04:30:49;;;;;;;4.17;3.80;;;;;;;16.06;100.00;97258.44;4971563;28;20228;-58
2022/07/05 04:33:18;;;;;;;4.00;3.70;;;;;;;16.22;100.00;97256.28;4985070;28;20301;-61
2022/07/05 04:35:47;;;;;;;4.50;4.20;;;;;;;16.33;100.00;97248.38;4944363;28;20296;-60
2022/07/05 04:38:15;;;;;;;3.57;3.37;;;;;;;16.55;100.00;97265.88;4964231;28;20240;-60
2022/07/05 04:40:43;;;;;;;4.30;3.90;;;;;;;16.71;100.00;97257.25;4982601;28;20637;-62
2022/07/05 04:43:11;;;;;;;4.00;3.80;;;;;;;16.87;100.00;97261.22;4983777;28;20292;-58
2022/07/05 04:45:39;;;;;;;5.13;4.13;;;;;;;17.00;100.00;97262.94;4985486;28;20452;-61
2022/07/05 04:48:08;;;;;;;3.60;3.40;;;;;;;17.15;100.00;97259.91;4986706;28;20567;-60
2022/07/05 04:50:37;;;;;;;3.83;3.53;;;;;;;17.25;100.00;97259.38;4983048;28;20365;-61
2022/07/05 04:53:06;;;;;;;3.90;3.63;;;;;;;17.42;100.00;97264.91;4949275;28;20317;-61
2022/07/05 04:55:34;;;;;;;3.30;3.20;;;;;;;17.56;100.00;97265.53;4987049;28;20271;-61
2022/07/05 04:58:02;;;;;;;3.87;3.57;;;;;;;17.69;100.00;97271.78;4982823;28;20401;-62
2022/07/05 05:00:30;;;;;;;3.20;3.00;;;;;;;17.74;100.00;97270.03;4985976;28;20654;-61
2022/07/05 05:02:58;;;;;;;3.60;3.30;;;;;;;17.83;100.00;97262.50;4983012;28;20198;-61
2022/07/05 05:05:26;;;;;;;4.00;3.50;;;;;;;18.00;100.00;97272.59;4985518;28;20525;-61
2022/07/05 05:07:55;;;;;;;3.80;3.30;;;;;;;18.01;100.00;97271.56;4940719;28;20307;-58
2022/07/05 05:10:24;;;;;;;4.37;2.97;;;;;;;18.13;100.00;97275.06;4981619;28;20252;-61
2022/07/05 05:12:52;;;;;;;3.40;3.20;;;;;;;18.25;100.00;97279.63;4982535;28;20205;-59
2022/07/05 05:15:20;;;;;;;3.70;3.40;;;;;;;18.38;100.00;97282.13;4985229;28;20693;-60
2022/07/05 05:17:48;;;;;;;3.17;3.07;;;;;;;18.36;100.00;97284.19;4986131;28;20791;-58
2022/07/05 05:20:18;;;;;;;3.23;2.90;;;;;;;18.50;100.00;97285.63;4984556;28;20291;-61
2022/07/05 05:22:46;;;;;;;3.30;3.10;;;;;;;18.57;100.00;97287.34;4961839;28;20241;-59
2022/07/05 05:25:16;;;;;;;3.67;3.20;;;;;;;18.69;100.00;97292.72;4974528;28;20225;-62
2022/07/05 05:27:45;;;;;;;3.33;3.03;;;;;;;18.80;100.00;97289.22;4985256;28;20328;-60
2022/07/05 05:30:16;;;;;;;3.37;3.17;;;;;;;18.80;100.00;97289.22;4986817;28;20204;-61
2022/07/05 05:32:44;;;;;;;3.33;3.13;;;;;;;18.90;100.00;97289.44;4985165;28;20239;-59
2022/07/05 05:35:12;;;;;;;2.70;2.57;;;;;;;18.97;100.00;97294.69;4989299;28;20545;-61
2022/07/05 05:37:51;;;;;;;3.73;3.00;;;;;;;19.04;100.00;97290.03;4982476;28;20302;-58
2022/07/05 05:40:21;;;;;;;3.27;3.03;;;;;;;19.15;100.00;97290.28;4984851;28;20217;-60
2022/07/05 05:42:50;;;;;;;3.70;3.50;;;;;;;19.18;100.00;97297.84;4985950;28;20326;-60
2022/07/05 05:45:19;;;;;;;3.93;3.10;;;;;;;19.27;100.00;97292.91;4987876;28;20471;-60
2022/07/05 05:47:48;;;;;;;2.77;2.67;;;;;;;19.42;100.00;97300.47;4986787;28;20388;-59
2022/07/05 05:50:19;;;;;;;4.23;2.87;;;;;;;19.44;100.00;97291.13;4986520;28;20304;-58
2022/07/05 05:52:48;;;;;;;3.13;2.97;;;;;;;19.66;100.00;97291.28;4986860;28;20300;-59
2022/07/05 05:55:16;;;;;;;3.40;3.20;;;;;;;19.62;100.00;97292.81;4944914;28;20236;-62
2022/07/05 05:57:46;;;;;;;4.17;2.60;;;;;;;19.79;100.00;97295.53;4984343;28;20317;-59
2022/07/05 06:00:15;;;;;;;3.20;2.90;;;;;;;19.81;100.00;97292.59;4986606;28;20716;-61
2022/07/05 06:02:44;;;;;;;3.20;3.00;;;;;;;19.79;100.00;97294.72;4986822;28;20279;-58
2022/07/05 06:05:13;;;;;;;3.10;3.00;;;;;;;19.80;100.00;97299.03;4986595;28;20540;-60
2022/07/05 06:07:49;;;;;;;3.40;3.00;;;;;;;19.87;100.00;97293.53;4987057;28;20228;-57
2022/07/05 06:10:22;;;;;;;5.33;3.20;;;;;;;20.17;100.00;97305.91;4946353;28;20304;-62
2022/07/05 06:12:52;;;;;;;3.53;3.30;;;;;;;20.20;100.00;97303.53;4986983;28;20551;-57
2022/07/05 06:15:20;;;;;;;3.13;2.87;;;;;;;20.39;98.01;97298.72;4989883;28;20568;-60
2022/07/05 06:17:49;;;;;;;4.60;3.60;;;;;;;20.39;100.00;97306.00;4986262;28;20298;-58
2022/07/05 06:20:18;;;;;;;3.53;2.70;;;;;;;20.71;98.58;97301.88;4987626;28;20240;-61
2022/07/05 06:22:46;;;;;;;4.20;3.20;;;;;;;20.78;93.34;97308.75;4982000;28;20241;-60
2022/07/05 06:25:15;;;;;;;3.60;2.93;;;;;;;20.74;94.11;97304.91;4943919;28;20760;-61
2022/07/05 06:27:54;;;;;;;3.10;2.90;;;;;;;20.68;95.63;97306.72;4937300;28;20259;-59
2022/07/05 06:30:23;;;;;;;4.40;3.07;;;;;;;20.60;95.59;97309.00;4982761;28;20287;-61
2022/07/05 06:32:52;;;;;;;4.27;3.10;;;;;;;20.85;100.00;97291.63;4982703;28;20244;-59
2022/07/05 06:35:20;;;;;;;3.10;2.90;;;;;;;21.15;93.77;97298.50;4987209;28;20517;-58
2022/07/05 06:37:51;;;;;;;3.13;2.93;;;;;;;21.17;93.59;97301.75;4985358;28;20305;-61
2022/07/05 06:40:20;;;;;;;3.00;2.80;;;;;;;21.30;90.50;97297.88;4983115;28;20725;-57
2022/07/05 06:42:50;;;;;;;3.20;3.00;;;;;;;21.38;88.93;97298.22;4989044;28;20649;-60
2022/07/05 06:45:20;;;;;;;3.33;3.13;;;;;;;21.59;86.36;97301.19;4953097;28;20282;-62
2022/07/05 06:47:55;;;;;;;3.17;2.97;;;;;;;21.75;88.43;97296.78;4987642;28;20706;-61
2022/07/05 06:50:23;;;;;;;3.87;2.80;;;;;;;21.81;86.81;97303.06;4986673;28;20213;-60
2022/07/05 06:52:52;;;;;;;2.57;2.47;;;;;;;21.67;91.95;97305.34;4985729;28;20233;-60
2022/07/05 06:55:20;;;;;;;3.00;2.80;;;;;;;21.88;88.75;97302.84;4986786;28;20822;-62
2022/07/05 06:57:48;;;;;;;2.77;2.63;;;;;;;22.01;85.09;97298.94;4984895;28;20319;-57
2022/07/05 07:00:38;;;;;;;2.60;2.50;;;;;;;22.11;83.82;97301.72;4944331;28;20848;-62
2022/07/05 07:03:26;;;;;;;3.23;3.03;;;;;;;21.90;85.35;97303.41;4985251;28;20263;-62
2022/07/05 07:06:14;;;;;;;4.83;3.33;;;;;;;22.01;85.45;97299.75;4985922;28;20671;-61
2022/07/05 07:11:28;;;;;;;2.97;2.87;;;;;;;22.30;83.23;97307.53;4986038;28;20591;-62
2022/07/05 07:13:56;;;;;;;3.77;3.47;;;;;;;22.17;83.25;97316.06;4968326;28;20304;-60
2022/07/05 07:16:26;;;;;;;3.10;2.90;;;;;;;22.35;82.41;97315.72;4965951;28;20318;-62
2022/07/05 07:18:55;;;;;;;3.50;3.17;;;;;;;22.36;80.16;97317.34;4981033;28;20308;-59
2022/07/05 07:21:42;;;;;;;2.90;2.70;;;;;;;22.56;80.34;97318.59;4986533;28;20207;-60
2022/07/05 07:24:10;;;;;;;3.40;3.30;;;;;;;22.68;78.49;97318.41;4983337;28;20204;-61
2022/07/05 07:29:24;;;;;;;3.20;2.93;;;;;;;23.05;77.39;97324.84;4985969;28;20545;-61
2022/07/05 07:31:54;;;;;;;3.60;3.30;;;;;;;22.92;80.07;97326.09;4937486;28;20228;-57
2022/07/05 07:34:22;;;;;;;3.40;3.20;;;;;;;23.04;80.36;97325.91;4985222;28;20213;-61
2022/07/05 07:36:51;;;;;;;3.13;2.93;;;;;;;23.30;74.82;97318.81;4985969;28;20272;-59
2022/07/05 07:39:19;;;;;;;3.10;2.90;;;;;;;23.31;75.83;97320.44;4984416;28;20430;-61
2022/07/05 07:41:46;;;;;;;3.30;3.00;;;;;;;23.50;71.93;97323.47;4983488;28;20212;-61
2022/07/05 07:44:15;;;;;;;3.20;3.07;;;;;;;23.50;72.56;97322.66;4982802;28;20205;-62
2022/07/05 07:46:43;;;;;;;3.20;2.77;;;;;;;23.58;72.24;97318.63;4940596;28;20403;-60
2022/07/05 07:49:13;;;;;;;3.40;3.20;;;;;;;23.05;71.33;97320.25;4977291;28;20220;-59
2022/07/05 07:51:41;;;;;;;3.30;3.00;;;;;;;23.06;72.82;97315.66;4983558;28;20705;-62
2022/07/05 07:54:09;;;;;;;3.90;3.37;;;;;;;23.02;74.63;97320.78;4981935;28;20312;-61
2022/07/05 07:56:38;;;;;;;3.47;3.17;;;;;;;23.21;74.22;97314.91;4986605;28;20231;-61
2022/07/05 07:59:06;;;;;;;4.10;3.63;;;;;;;23.36;74.16;97320.44;4983277;28;22468;-60
2022/07/05 08:01:34;;;;;;;3.53;2.83;;;;;;;23.42;71.86;97318.56;4983740;28;20209;-62
2022/07/05 08:04:11;;;;;;;3.03;2.93;;;;;;;23.39;73.06;97319.09;4940355;28;20323;-62
2022/07/05 08:06:41;;;;;;;4.70;3.30;;;;;;;23.42;69.24;97311.28;4979617;28;20225;-62
2022/07/05 08:09:09;;;;;;;2.90;2.70;;;;;;;23.58;69.26;97319.44;4982571;28;20493;-62
2022/07/05 08:11:43;;;;;;;3.93;3.33;;;;;;;23.74;74.50;97312.19;4982498;28;20437;-61
2022/07/05 08:14:11;;;;;;;3.57;3.27;;;;;;;23.87;64.27;97324.38;4980671;28;20407;-59
2022/07/05 08:16:39;;;;;;;3.93;3.27;;;;;;;24.00;67.04;97312.25;4989618;28;20213;-61
2022/07/05 08:22:01;;;;;;;3.40;3.10;;;;;;;23.95;63.99;97323.84;4979745;28;20205;-59
2022/07/05 08:24:30;;;;;;;3.23;3.10;;;;;;;24.14;59.93;97318.78;4987223;28;20641;-61
2022/07/05 08:26:58;;;;;;;4.40;3.40;;;;;;;24.19;61.69;97309.03;4982929;28;20248;-59
2022/07/05 08:29:26;;;;;;;3.30;3.10;;;;;;;24.46;60.81;97318.78;4980326;28;20753;-62
2022/07/05 08:31:55;;;;;;;3.37;3.10;;;;;;;24.23;58.07;97299.28;4970137;28;20317;-58
2022/07/05 08:34:23;;;;;;;3.57;3.23;;;;;;;24.40;58.22;97305.25;4917756;28;20242;-60
2022/07/05 08:36:52;;;;;;;3.47;3.20;;;;;;;24.41;56.89;97311.47;4982458;28;20296;-63
2022/07/05 08:39:22;;;;;;;2.97;2.87;;;;;;;24.42;55.88;97313.94;4971145;28;20727;-60
2022/07/05 08:41:51;;;;;;;4.97;2.97;;;;;;;24.53;54.79;97311.22;4985535;28;20237;-61
2022/07/05 08:44:21;;;;;;;2.90;2.80;;;;;;;24.47;55.96;97306.88;4969367;28;20205;-60
2022/07/05 08:46:52;;;;;;;3.57;3.30;;;;;;;24.74;55.15;97300.38;4990920;28;20225;-60
2022/07/05 08:49:24;;;;;;;2.70;2.60;;;;;;;24.98;52.66;97303.31;4951283;28;20209;-60
2022/07/05 08:51:53;;;;;;;3.70;3.03;;;;;;;25.19;50.85;97303.25;4979876;28;20206;-61
2022/07/05 08:54:24;;;;;;;3.50;3.20;;;;;;;25.52;51.02;97303.69;4981862;28;20213;-57
2022/07/05 08:56:53;;;;;;;3.40;3.20;;;;;;;25.60;49.85;97303.13;4985421;28;20249;-63
2022/07/05 08:59:41;;;;;;;3.77;2.67;;;;;;;25.60;48.99;97294.16;4969928;28;20683;-63
2022/07/05 09:02:13;;;;;;;3.53;3.33;;;;;;;25.86;48.79;97298.38;4988353;28;20205;-61
2022/07/05 09:04:44;;;;;;;4.67;2.80;;;;;;;26.36;48.72;97297.50;4988253;28;20450;-62
2022/07/05 09:07:16;;;;;;;3.20;3.00;;;;;;;26.52;45.56;97302.81;4945306;28;20224;-60
2022/07/05 09:09:50;;;;;;;3.20;3.10;;;;;;;26.56;45.63;97292.97;4988230;28;20206;-60
2022/07/05 09:12:18;;;;;;;3.83;3.50;;;;;;;26.08;47.54;97299.84;4986881;28;20344;-59
2022/07/05 09:14:51;;;;;;;2.60;2.50;;;;;;;26.39;45.87;97299.63;4970439;28;20389;-61
2022/07/05 09:17:19;;;;;;;2.83;2.73;;;;;;;26.41;44.85;97302.06;4988119;28;20283;-59
2022/07/05 09:20:05;;;;;;;3.47;3.20;;;;;;;26.44;43.96;97301.50;4990128;28;20213;-60
2022/07/05 09:22:43;;;;;;;2.73;2.60;;;;;;;26.91;44.03;97290.22;4947225;28;20232;-60
2022/07/05 09:25:21;;;;;;;2.70;2.60;;;;;;;26.84;42.95;97288.66;4985873;28;20219;-61
2022/07/05 09:27:55;;;;;;;2.53;2.43;;;;;;;27.22;41.89;97290.69;4988294;28;20982;-59
2022/07/05 09:30:28;;;;;;;2.80;2.70;;;;;;;26.70;41.33;97298.53;4974571;28;20231;-59
2022/07/05 09:33:03;;;;;;;2.90;2.70;;;;;;;25.72;44.39;97294.63;4989406;28;20209;-61
2022/07/05 09:35:32;;;;;;;3.37;2.70;;;;;;;25.46;45.04;97293.94;4988369;28;20778;-61
2022/07/05 09:38:02;;;;;;;2.57;2.43;;;;;;;24.60;48.72;97297.41;4946186;28;20489;-61
2022/07/05 09:40:33;;;;;;;3.27;2.50;;;;;;;24.46;49.81;97292.53;4985795;28;20213;-61
2022/07/05 09:43:14;;;;;;;5.00;4.60;;;;;;;24.97;49.15;97293.56;4987154;28;20725;-57
2022/07/05 09:45:52;;;;;;;2.83;2.70;;;;;;;25.21;47.53;97298.38;4985820;28;20248;-61
2022/07/05 09:48:21;;;;;;;3.20;3.00;;;;;;;25.55;46.12;97295.00;4968353;28;20256;-59
2022/07/05 09:51:09;;;;;;;3.50;3.20;;;;;;;25.63;45.66;97310.72;4986333;28;20313;-56
2022/07/05 09:53:58;;;;;;;3.43;2.70;;;;;;;26.12;43.84;97300.09;4943793;28;20316;-61
2022/07/05 09:56:31;;;;;;;3.50;3.30;;;;;;;26.52;44.09;97295.44;4983813;28;20217;-61
2022/07/05 09:59:18;;;;;;;4.27;2.67;;;;;;;26.73;40.82;97303.44;4987808;28;20535;-61
2022/07/05 10:01:46;;;;;;;4.63;2.43;;;;;;;26.95;42.83;97296.69;4972890;28;20690;-61
2022/07/05 10:04:14;;;;;;;3.23;2.70;;;;;;;27.01;40.76;97298.25;4985418;28;20631;-61
2022/07/05 10:06:43;;;;;;;2.90;2.70;;;;;;;26.87;40.75;97293.50;4989114;28;20440;-61
2022/07/05 10:09:12;;;;;;;2.77;2.67;;;;;;;27.14;42.87;97296.75;4942959;28;20210;-60
2022/07/05 10:11:42;;;;;;;3.30;3.00;;;;;;;26.89;42.63;97297.84;4984765;28;20432;-58
2022/07/05 10:14:22;;;;;;;2.70;2.60;;;;;;;26.30;40.18;97299.41;4988642;28;20559;-61
2022/07/05 10:16:58;;;;;;;3.20;2.90;;;;;;;25.90;40.57;97300.50;4985886;28;20360;-60
2022/07/05 10:19:30;;;;;;;2.43;2.20;;;;;;;25.41;41.17;97300.19;4969190;28;20206;-61
2022/07/05 10:21:58;;;;;;;3.20;2.70;;;;;;;25.23;42.52;97297.00;4989035;28;20695;-61
2022/07/05 10:24:45;;;;;;;2.60;2.40;;;;;;;25.05;42.60;97297.63;4941448;28;20224;-61
2022/07/05 10:27:16;;;;;;;2.60;2.50;;;;;;;25.48;42.25;97299.91;4985544;28;20245;-58
2022/07/05 10:29:44;;;;;;;2.50;2.40;;;;;;;26.03;39.45;97294.44;4985903;28;21245;-54
2022/07/05 10:32:15;;;;;;;2.73;2.63;;;;;;;26.26;41.14;97292.16;4987838;28;20205;-58
2022/07/05 10:34:46;;;;;;;3.03;2.80;;;;;;;26.29;41.00;97294.28;4971770;28;20435;-62
2022/07/05 10:37:27;;;;;;;3.53;2.77;;;;;;;26.14;40.42;97292.47;4986615;28;20661;-58
2022/07/05 10:39:56;;;;;;;2.70;2.50;;;;;;;26.31;39.07;97292.09;4943610;28;20355;-61
2022/07/05 10:42:28;;;;;;;2.77;2.67;;;;;;;26.23;39.29;97290.00;4934778;28;20213;-61
2022/07/05 10:44:56;;;;;;;2.93;2.73;;;;;;;26.37;38.17;97288.25;4982740;28;20283;-62
2022/07/05 10:47:25;;;;;;;2.70;2.50;;;;;;;26.45;37.93;97289.53;4984682;28;20222;-61
2022/07/05 10:50:02;;;;;;;2.33;2.13;;;;;;;26.40;38.45;97284.94;4983359;28;20201;-60
2022/07/05 10:52:30;;;;;;;2.57;2.40;;;;;;;26.41;36.26;97280.34;4985312;28;21760;-60
2022/07/05 10:55:21;;;;;;;2.87;2.60;;;;;;;26.42;35.88;97281.97;4986600;28;20500;-61
2022/07/05 10:58:24;;;;;;;2.33;2.23;;;;;;;26.64;35.64;97275.22;4938407;28;20245;-61
2022/07/05 11:01:32;;;;;;;7.07;6.47;;;;;;;27.04;36.37;97275.13;4974564;28;20440;-61
2022/07/05 11:04:35;;;;;;;2.53;2.33;;;;;;;27.26;35.50;97269.94;4981320;28;20238;-61
2022/07/05 11:07:04;;;;;;;2.30;2.20;;;;;;;27.27;35.50;97278.94;4983149;28;20236;-61
2022/07/05 11:09:32;;;;;;;2.53;2.23;;;;;;;27.15;35.15;97276.63;4985914;28;20204;-59
2022/07/05 11:12:08;;;;;;;2.00;1.90;;;;;;;26.83;34.22;97275.31;4988114;28;20392;-61
2022/07/05 11:15:06;;;;;;;2.40;2.20;;;;;;;26.51;34.40;97268.56;4950908;28;20502;-61
2022/07/05 11:17:36;;;;;;;3.07;1.90;;;;;;;26.08;34.15;97263.75;4987580;28;20227;-59
2022/07/05 11:20:28;;;;;;;1.93;1.80;;;;;;;25.74;35.15;97268.03;4986907;28;20213;-61
2022/07/05 11:23:05;;;;;;;2.33;1.90;;;;;;;25.65;35.44;97267.84;4985833;28;20364;-61
2022/07/05 11:25:34;;;;;;;3.03;1.90;;;;;;;25.37;34.80;97253.84;4984869;28;20627;-60
2022/07/05 11:28:08;;;;;;;2.50;1.90;;;;;;;25.94;36.23;97267.09;4983573;28;20253;-61
2022/07/05 11:31:00;;;;;;;3.20;2.50;;;;;;;26.05;34.92;97258.88;4940990;28;20304;-59
2022/07/05 11:33:34;;;;;;;2.13;2.03;;;;;;;26.13;35.00;97259.06;4984287;28;20213;-59
2022/07/05 11:36:04;;;;;;;2.67;2.00;;;;;;;25.73;34.99;97269.13;4984107;28;20731;-62
2022/07/05 11:38:32;;;;;;;2.40;2.20;;;;;;;25.63;34.50;97263.75;4983815;28;20234;-65
2022/07/05 11:41:20;;;;;;;2.20;2.00;;;;;;;25.42;35.16;97259.22;4987522;28;20688;-60
2022/07/05 11:43:57;;;;;;;2.40;2.30;;;;;;;25.80;36.15;97256.06;4942329;28;21696;-60
2022/07/05 11:46:28;;;;;;;1.63;1.57;;;;;;;26.40;34.57;97257.78;4984418;28;20206;-61
2022/07/05 11:49:20;;;;;;;1.33;1.33;;;;;;;26.23;34.17;97260.94;4984624;28;20472;-61
2022/07/05 11:51:56;;;;;;;1.97;1.87;;;;;;;26.12;34.35;97253.94;4988139;28;20204;-60
2022/07/05 11:54:25;;;;;;;1.70;1.60;;;;;;;26.48;33.03;97258.25;4988323;28;20212;-60
2022/07/05 11:56:53;;;;;;;4.03;1.80;;;;;;;26.80;32.55;97254.97;4980472;28;20245;-62